METAR Data
IDs: Format: Raw Decoded Include TAF

Data at: 0157 UTC 01 Mar 2021

KALN 010147Z 32013KT 10SM CLR 07/04 A2998